Huvudsida
METAR-TAF:

METAR-TAF

Flygplatser :

Mora-Siljan flygplats

Mora, Sverige

latitud: 60-57-31N, longitud: 14-30-40E, höjd: 193 m

Aktuellt väderrapport

Denna rapport gjordes för 28 minuter sedan, klockan 09:20 UTC
Vind 5 kt från syd/sydost
Temperatur 19°C
Fuktighet 34%
Tryck 1032 hPa
Sikt 10 km eller mer

METAR: ESKM 270920Z AUTO 15005KT 9999 NCD 19/03 Q1032

Tid: 11:48 (09:48 UTC)


TAF: saknas

Aktuella väderrapporter och prognoser från 4000 flygplatser (METAR- och TAF-rapporter).

De tillgängliga stationerna syns som gula och röda prickar på kartan.

För musen över prickarna för att se namnen på stationerna.

Klicka sedan för att få väderrapporter och prognoser.

För att ändra kartan: Klicka på de gröna knapparna med ett svart kors på för att zooma in; den gröna knappen med ett streck på för att zooma ut; eller på de gröna pilarna för angränsande kartor.


METAR-TAF: